Terminal Aerodrome Forecast
Issued by NWS Nashville, TN

Home | Current Version | Previous Version | Text Only | Print | Product List | Glossary On
Versions: 1 2 3 4 5 6 7 8 9 10 11 12 13 14 15 16 17 18 19 20 21 22 23 24 25 26 27 28 29 30
309
FTUS44 KOHX 301739
TAFBNA
TAF
KBNA 301739Z 3018/3118 19015G26KT P6SM BKN050
     FM302100 20012G20KT 6SM -TSRA SCT020 BKN035CB
      TEMPO 3022/3102 2SM TSRA BR OVC020CB
     FM310500 23006KT P6SM OVC012=

USA.gov is the U.S. government's official web portal to all federal, state and local government web resources and services.